createdAt,value
2018-10-17T00:01:01.590Z,9.40
2018-10-17T00:06:04.615Z,9.40
2018-10-17T00:11:07.648Z,9.40
2018-10-17T00:16:10.645Z,9.40
2018-10-17T00:21:13.685Z,9.30
2018-10-17T00:26:16.724Z,9.30
2018-10-17T00:31:19.801Z,9.30
2018-10-17T00:36:22.813Z,9.20
2018-10-17T00:41:25.924Z,9.20
2018-10-17T00:46:29.503Z,9.20
2018-10-17T00:51:32.663Z,9.10
2018-10-17T00:56:35.768Z,9.10
2018-10-17T01:01:39.205Z,9.00
2018-10-17T01:06:42.244Z,9.00
2018-10-17T01:11:45.240Z,9.00
2018-10-17T01:16:48.282Z,9.00
2018-10-17T01:21:51.322Z,9.00
2018-10-17T01:26:54.381Z,9.00
2018-10-17T01:31:57.407Z,9.00
2018-10-17T01:37:00.469Z,8.90
2018-10-17T01:42:03.591Z,8.90
2018-10-17T01:47:06.749Z,8.90
2018-10-17T01:52:09.740Z,8.80
2018-10-17T01:57:12.753Z,8.80
2018-10-17T02:02:15.787Z,8.70
2018-10-17T02:07:18.828Z,8.70
2018-10-17T02:12:21.851Z,8.70
2018-10-17T02:17:24.866Z,8.60
2018-10-17T02:22:27.908Z,8.60
2018-10-17T02:27:30.986Z,8.60
2018-10-17T02:32:34.014Z,8.60
2018-10-17T02:37:37.028Z,8.60
2018-10-17T02:42:40.061Z,8.50
2018-10-17T02:47:43.071Z,8.40
2018-10-17T02:52:46.151Z,8.40
2018-10-17T02:57:49.253Z,8.40
2018-10-17T03:02:53.052Z,8.40
2018-10-17T03:07:56.103Z,8.40
2018-10-17T03:12:59.229Z,8.30
2018-10-17T03:18:02.334Z,8.40
2018-10-17T03:23:05.834Z,8.40
2018-10-17T03:28:09.688Z,8.40
2018-10-17T03:33:12.677Z,8.30
2018-10-17T03:38:15.700Z,8.30
2018-10-17T03:43:18.773Z,8.30
2018-10-17T03:48:21.763Z,8.20
2018-10-17T03:58:34.322Z,8.20
2018-10-17T04:03:37.355Z,8.10
2018-10-17T04:08:40.508Z,8.00
2018-10-17T04:13:43.574Z,8.00
2018-10-17T04:18:46.592Z,8.00
2018-10-17T04:23:49.665Z,8.00
2018-10-17T04:28:52.718Z,8.00
2018-10-17T04:33:55.736Z,8.00
2018-10-17T04:38:58.755Z,7.90
2018-10-17T04:44:01.841Z,7.90
2018-10-17T04:49:05.419Z,8.00
2018-10-17T04:54:08.443Z,8.00
2018-10-17T04:59:11.587Z,7.90
2018-10-17T05:04:14.560Z,7.90
2018-10-17T05:09:17.604Z,7.90
2018-10-17T05:14:20.664Z,7.80
2018-10-17T05:19:23.784Z,7.80
2018-10-17T05:24:26.850Z,7.70
2018-10-17T05:29:29.908Z,7.70
2018-10-17T05:34:33.153Z,7.60
2018-10-17T05:39:36.187Z,7.60
2018-10-17T05:44:39.268Z,7.50
2018-10-17T05:49:42.559Z,7.60
2018-10-17T05:54:45.634Z,7.50
2018-10-17T05:59:48.809Z,7.50
2018-10-17T06:04:51.882Z,7.60
2018-10-17T06:09:54.906Z,7.70
2018-10-17T06:14:57.931Z,7.80
2018-10-17T06:20:01.024Z,8.00
2018-10-17T06:25:04.208Z,8.10
2018-10-17T06:30:08.379Z,8.20
2018-10-17T06:35:11.450Z,8.30
2018-10-17T06:40:14.514Z,8.40
2018-10-17T06:45:17.582Z,8.50
2018-10-17T06:50:20.829Z,8.70
2018-10-17T06:55:23.894Z,8.80
2018-10-17T07:00:27.157Z,9.00
2018-10-17T07:05:30.273Z,9.10
2018-10-17T07:10:33.325Z,9.20
2018-10-17T07:15:36.611Z,9.30
2018-10-17T07:20:39.552Z,9.50
2018-10-17T07:25:42.611Z,9.60
2018-10-17T07:30:45.657Z,9.70
2018-10-17T07:35:48.758Z,9.90
2018-10-17T07:40:52.045Z,10.00
2018-10-17T07:45:55.164Z,10.30
2018-10-17T07:50:58.353Z,10.90
2018-10-17T07:56:01.601Z,12.20
2018-10-17T08:01:04.697Z,13.40
2018-10-17T08:06:07.783Z,14.00
2018-10-17T08:11:10.933Z,15.10
2018-10-17T08:16:13.996Z,16.30
2018-10-17T08:21:17.019Z,17.40
2018-10-17T08:26:20.024Z,17.30
2018-10-17T08:31:23.076Z,18.00
2018-10-17T08:36:26.297Z,18.50
2018-10-17T08:41:29.295Z,17.60
2018-10-17T08:46:32.319Z,16.70
2018-10-17T08:51:35.364Z,15.70
2018-10-17T08:56:38.400Z,15.10
2018-10-17T09:01:41.558Z,14.90
2018-10-17T09:06:44.584Z,14.50
2018-10-17T09:11:47.844Z,14.40
2018-10-17T09:16:50.982Z,14.40
2018-10-17T09:21:54.221Z,14.50
2018-10-17T09:26:57.137Z,14.90
2018-10-17T09:32:00.247Z,14.80
2018-10-17T09:37:03.360Z,14.90
2018-10-17T09:42:06.575Z,14.90
2018-10-17T09:47:09.574Z,15.00
2018-10-17T09:52:12.691Z,15.20
2018-10-17T09:57:15.661Z,15.30
2018-10-17T10:02:18.764Z,15.40
2018-10-17T10:07:21.803Z,15.30
2018-10-17T10:12:24.851Z,15.40
2018-10-17T10:17:28.006Z,15.40
2018-10-17T10:22:30.967Z,15.50
2018-10-17T10:27:34.045Z,15.50
2018-10-17T10:32:37.072Z,15.70
2018-10-17T10:37:40.200Z,15.90
2018-10-17T10:42:43.227Z,16.00
2018-10-17T10:47:46.332Z,16.30
2018-10-17T10:52:49.404Z,16.40
2018-10-17T10:57:52.479Z,16.70
2018-10-17T11:02:55.729Z,16.80
2018-10-17T11:07:58.767Z,17.00
2018-10-17T11:13:01.778Z,17.20
2018-10-17T11:18:04.975Z,17.20
2018-10-17T11:23:08.161Z,17.40
2018-10-17T11:28:11.220Z,17.50
2018-10-17T11:33:14.314Z,17.50
2018-10-17T11:38:17.353Z,17.60
2018-10-17T11:43:20.390Z,17.60
2018-10-17T11:48:23.451Z,17.70
2018-10-17T11:53:26.601Z,17.80
2018-10-17T11:58:29.722Z,17.80
2018-10-17T12:03:32.956Z,17.90
2018-10-17T12:08:35.974Z,18.00
2018-10-17T12:13:39.056Z,18.20
2018-10-17T12:18:42.153Z,18.30
2018-10-17T12:23:45.208Z,18.40
2018-10-17T12:28:48.360Z,18.40
2018-10-17T12:33:51.448Z,18.40
2018-10-17T12:38:54.571Z,18.50
2018-10-17T12:43:57.619Z,18.60
2018-10-17T12:49:00.664Z,18.70
2018-10-17T12:54:03.828Z,18.70
2018-10-17T12:59:07.047Z,18.80
2018-10-17T13:04:10.038Z,18.80
2018-10-17T13:09:13.470Z,18.90
2018-10-17T13:14:16.528Z,18.90
2018-10-17T13:19:19.604Z,19.00
2018-10-17T13:24:22.670Z,19.10
2018-10-17T13:29:25.655Z,19.40
2018-10-17T13:34:28.703Z,19.80
2018-10-17T13:39:31.827Z,20.30
2018-10-17T13:44:34.868Z,20.50
2018-10-17T13:49:37.989Z,20.80
2018-10-17T13:54:41.078Z,20.90
2018-10-17T13:59:44.064Z,20.90
2018-10-17T14:04:47.080Z,20.70
2018-10-17T14:09:50.120Z,20.50
2018-10-17T14:14:53.200Z,20.20
2018-10-17T14:19:56.240Z,19.90
2018-10-17T14:24:59.248Z,19.50
2018-10-17T14:30:02.426Z,19.20
2018-10-17T14:35:08.128Z,19.10
2018-10-17T14:40:11.336Z,18.90
2018-10-17T14:45:14.544Z,18.80
2018-10-17T14:50:17.433Z,18.70
2018-10-17T14:55:20.552Z,18.50
2018-10-17T15:00:23.547Z,18.40
2018-10-17T15:05:26.551Z,18.30
2018-10-17T15:10:29.780Z,18.20
2018-10-17T15:15:36.564Z,18.10
2018-10-17T15:20:39.692Z,17.90
2018-10-17T15:25:42.844Z,17.70
2018-10-17T15:30:45.974Z,17.50
2018-10-17T15:35:49.042Z,17.30
2018-10-17T15:40:52.157Z,17.10
2018-10-17T15:45:55.200Z,17.00
2018-10-17T15:50:58.335Z,16.70
2018-10-17T15:56:01.377Z,16.50
2018-10-17T16:01:04.634Z,16.30
2018-10-17T16:06:07.738Z,16.10
2018-10-17T16:11:10.716Z,15.80
2018-10-17T16:16:13.759Z,15.60
2018-10-17T16:21:16.776Z,15.40
2018-10-17T16:26:19.848Z,15.20
2018-10-17T16:31:22.863Z,15.10
2018-10-17T16:36:25.877Z,14.90
2018-10-17T16:41:28.925Z,14.70
2018-10-17T16:46:31.896Z,14.50
2018-10-17T16:51:35.017Z,14.40
2018-10-17T16:56:38.119Z,14.20
2018-10-17T17:01:41.139Z,14.10
2018-10-17T17:06:44.180Z,13.90
2018-10-17T17:11:47.188Z,13.80
2018-10-17T17:16:50.224Z,13.60
2018-10-17T17:21:53.260Z,13.50
2018-10-17T17:26:56.416Z,13.40
2018-10-17T17:31:59.448Z,13.30
2018-10-17T17:37:02.595Z,13.20
2018-10-17T17:42:05.710Z,13.10
2018-10-17T17:47:08.704Z,12.90
2018-10-17T17:52:11.864Z,12.80
2018-10-17T17:57:15.040Z,12.70
2018-10-17T18:02:18.101Z,12.60
2018-10-17T18:07:21.169Z,12.50
2018-10-17T18:12:24.223Z,12.40
2018-10-17T18:17:27.269Z,12.40
2018-10-17T18:22:30.398Z,12.30
2018-10-17T18:27:33.578Z,12.10
2018-10-17T18:32:36.627Z,12.10
2018-10-17T18:37:39.690Z,12.00
2018-10-17T18:42:42.749Z,11.90
2018-10-17T18:47:45.827Z,11.80
2018-10-17T18:52:48.898Z,11.70
2018-10-17T18:57:52.035Z,11.70
2018-10-17T19:02:55.156Z,11.70
2018-10-17T19:07:58.195Z,11.60
2018-10-17T19:13:01.320Z,11.50
2018-10-17T19:18:04.455Z,11.50
2018-10-17T19:23:07.504Z,11.40
2018-10-17T19:28:10.540Z,11.40
2018-10-17T19:33:13.735Z,11.30
2018-10-17T19:38:16.643Z,11.20
2018-10-17T19:43:19.692Z,11.20
2018-10-17T19:48:22.721Z,11.20
2018-10-17T19:53:25.780Z,11.20
2018-10-17T19:58:28.831Z,11.10
2018-10-17T20:03:31.815Z,11.10
2018-10-17T20:08:34.819Z,11.00
2018-10-17T20:13:37.842Z,10.90
2018-10-17T20:18:40.896Z,10.90
2018-10-17T20:23:43.989Z,10.80
2018-10-17T20:28:47.015Z,10.70
2018-10-17T20:33:50.078Z,10.70
2018-10-17T20:38:53.132Z,10.60
2018-10-17T20:43:56.243Z,10.60
2018-10-17T20:48:59.284Z,10.60
2018-10-17T20:54:02.327Z,10.50
2018-10-17T20:59:05.532Z,10.50
2018-10-17T21:04:08.604Z,10.50
2018-10-17T21:09:13.376Z,10.60
2018-10-17T21:14:16.495Z,10.60
2018-10-17T21:19:19.524Z,10.50
2018-10-17T21:24:22.546Z,10.40
2018-10-17T21:29:25.604Z,10.40
2018-10-17T21:34:28.625Z,10.30
2018-10-17T21:39:31.647Z,10.30
2018-10-17T21:44:34.829Z,10.20
2018-10-17T21:49:37.868Z,10.10
2018-10-17T21:54:40.946Z,10.10
2018-10-17T21:59:43.988Z,10.10
2018-10-17T22:04:47.013Z,10.00
2018-10-17T22:09:50.193Z,10.00
2018-10-17T22:14:53.182Z,9.90
2018-10-17T22:19:56.554Z,9.90
2018-10-17T22:24:59.602Z,9.80
2018-10-17T22:30:02.709Z,9.70
2018-10-17T22:35:06.105Z,9.70
2018-10-17T22:40:09.168Z,9.70
2018-10-17T22:45:12.192Z,9.70
2018-10-17T22:50:15.303Z,9.70
2018-10-17T22:55:18.362Z,9.60
2018-10-17T23:00:21.412Z,9.60
2018-10-17T23:05:24.515Z,9.50
2018-10-17T23:10:27.597Z,9.50
2018-10-17T23:15:30.625Z,9.50
2018-10-17T23:20:33.860Z,9.40
2018-10-17T23:25:36.976Z,9.40
2018-10-17T23:30:39.992Z,9.30
2018-10-17T23:35:43.028Z,9.30
2018-10-17T23:40:46.100Z,9.20
2018-10-17T23:45:49.120Z,9.10
2018-10-17T23:50:52.117Z,9.10
2018-10-17T23:55:55.177Z,9.00
